createdAt,value
2023-05-05T00:00:14.801Z,1008.20
2023-05-05T00:01:14.816Z,1008.13
2023-05-05T00:02:14.837Z,1008.15
2023-05-05T00:03:14.881Z,1008.12
2023-05-05T00:04:14.907Z,1008.13
2023-05-05T00:05:14.768Z,1008.10
2023-05-05T00:06:14.754Z,1008.14
2023-05-05T00:07:14.720Z,1008.10
2023-05-05T00:08:14.719Z,1008.09
2023-05-05T00:09:14.701Z,1008.11
2023-05-05T00:10:14.713Z,1008.09
2023-05-05T00:11:14.710Z,1008.09
2023-05-05T00:12:14.680Z,1008.09
2023-05-05T00:13:14.719Z,1008.08
2023-05-05T00:14:14.644Z,1008.07
2023-05-05T00:15:14.644Z,1008.07
2023-05-05T00:16:14.661Z,1008.08
2023-05-05T00:17:14.673Z,1008.08
2023-05-05T00:18:14.718Z,1008.05
2023-05-05T00:19:14.598Z,1008.06
2023-05-05T00:20:14.612Z,1008.02
2023-05-05T00:21:14.627Z,1008.04
2023-05-05T00:22:14.592Z,1008.03
2023-05-05T00:23:14.549Z,1008.03
2023-05-05T00:24:14.572Z,1007.99
2023-05-05T00:25:14.605Z,1007.99
2023-05-05T00:26:14.580Z,1007.98
2023-05-05T00:27:14.507Z,1007.99
2023-05-05T00:28:14.492Z,1008.03
2023-05-05T00:29:14.484Z,1008.00
2023-05-05T00:30:14.607Z,1008.01
2023-05-05T00:31:14.486Z,1008.01
2023-05-05T00:32:14.486Z,1008.03
2023-05-05T00:33:14.441Z,1008.00
2023-05-05T00:34:14.484Z,1007.98
2023-05-05T00:35:14.433Z,1008.00
2023-05-05T00:36:14.414Z,1007.98
2023-05-05T00:37:14.407Z,1007.94
2023-05-05T00:38:14.416Z,1007.92
2023-05-05T00:39:14.380Z,1007.91
2023-05-05T00:40:14.365Z,1007.90
2023-05-05T00:41:14.370Z,1007.92
2023-05-05T00:42:14.360Z,1007.90
2023-05-05T00:43:14.333Z,1007.88
2023-05-05T00:44:14.379Z,1007.89
2023-05-05T00:45:14.331Z,1007.91
2023-05-05T00:46:14.416Z,1007.94
2023-05-05T00:47:14.301Z,1007.96
2023-05-05T00:48:14.280Z,1007.92
2023-05-05T00:49:14.315Z,1007.89
2023-05-05T00:50:14.328Z,1007.89
2023-05-05T00:51:14.266Z,1007.85
2023-05-05T00:52:14.256Z,1007.87
2023-05-05T00:53:14.232Z,1007.86
2023-05-05T00:54:14.232Z,1007.88
2023-05-05T00:55:14.237Z,1007.86
2023-05-05T00:56:14.213Z,1007.87
2023-05-05T00:57:14.202Z,1007.94
2023-05-05T00:58:14.184Z,1007.92
2023-05-05T00:59:14.174Z,1008.01
2023-05-05T01:00:14.223Z,1008.00
2023-05-05T01:01:14.264Z,1007.99
2023-05-05T01:02:14.148Z,1007.97
2023-05-05T01:03:14.185Z,1007.95
2023-05-05T01:04:14.136Z,1007.94
2023-05-05T01:05:14.134Z,1008.04
2023-05-05T01:06:14.179Z,1008.02
2023-05-05T01:07:14.087Z,1008.06
2023-05-05T01:08:14.092Z,1008.11
2023-05-05T01:09:14.074Z,1008.13
2023-05-05T01:10:20.409Z,1008.22
2023-05-05T01:11:15.047Z,1008.20
2023-05-05T01:12:14.058Z,1008.17
2023-05-05T01:13:14.137Z,1008.17
2023-05-05T01:14:14.006Z,1008.19
2023-05-05T01:15:14.030Z,1008.20
2023-05-05T01:16:14.057Z,1008.19
2023-05-05T01:17:13.973Z,1008.15
2023-05-05T01:18:14.037Z,1008.17
2023-05-05T01:19:13.964Z,1008.12
2023-05-05T01:20:14.002Z,1008.18
2023-05-05T01:21:13.922Z,1008.12
2023-05-05T01:22:14.027Z,1008.11
2023-05-05T01:23:13.949Z,1008.11
2023-05-05T01:24:13.910Z,1008.13
2023-05-05T01:25:13.880Z,1008.15
2023-05-05T01:26:13.921Z,1008.13
2023-05-05T01:27:13.867Z,1008.10
2023-05-05T01:28:13.858Z,1008.11
2023-05-05T01:29:13.845Z,1008.12
2023-05-05T01:30:13.846Z,1008.13
2023-05-05T01:31:13.900Z,1008.17
2023-05-05T01:32:13.858Z,1008.17
2023-05-05T01:33:13.790Z,1008.19
2023-05-05T01:34:13.825Z,1008.16
2023-05-05T01:35:13.823Z,1008.17
2023-05-05T01:36:13.851Z,1008.18
2023-05-05T01:37:13.749Z,1008.18
2023-05-05T01:38:13.788Z,1008.22
2023-05-05T01:39:13.734Z,1008.20
2023-05-05T01:40:13.746Z,1008.23
2023-05-05T01:41:13.749Z,1008.26
2023-05-05T01:42:13.740Z,1008.24
2023-05-05T01:43:13.687Z,1008.28
2023-05-05T01:44:13.682Z,1008.25
2023-05-05T01:45:13.672Z,1008.23
2023-05-05T01:46:13.796Z,1008.22
2023-05-05T01:47:13.643Z,1008.23
2023-05-05T01:48:13.673Z,1008.27
2023-05-05T01:49:13.619Z,1008.28
2023-05-05T01:50:13.635Z,1008.30
2023-05-05T01:51:13.599Z,1008.27
2023-05-05T01:52:13.582Z,1008.28
2023-05-05T01:53:13.581Z,1008.24
2023-05-05T01:54:13.562Z,1008.25
2023-05-05T01:55:13.565Z,1008.27
2023-05-05T01:56:13.604Z,1008.31
2023-05-05T01:57:13.518Z,1008.32
2023-05-05T01:58:13.541Z,1008.31
2023-05-05T01:59:13.509Z,1008.36
2023-05-05T02:00:13.501Z,1008.34
2023-05-05T02:01:13.558Z,1008.37
2023-05-05T02:02:13.525Z,1008.36
2023-05-05T02:03:13.534Z,1008.36
2023-05-05T02:04:13.456Z,1008.39
2023-05-05T02:05:13.452Z,1008.39
2023-05-05T02:06:13.441Z,1008.36
2023-05-05T02:07:13.437Z,1008.36
2023-05-05T02:08:13.415Z,1008.34
2023-05-05T02:09:13.394Z,1008.37
2023-05-05T02:10:13.386Z,1008.39
2023-05-05T02:11:13.374Z,1008.43
2023-05-05T02:12:13.369Z,1008.43
2023-05-05T02:13:13.494Z,1008.43
2023-05-05T02:14:13.375Z,1008.40
2023-05-05T02:15:13.340Z,1008.42
2023-05-05T02:16:13.444Z,1008.42
2023-05-05T02:17:13.326Z,1008.42
2023-05-05T02:18:13.336Z,1008.39
2023-05-05T02:19:13.309Z,1008.40
2023-05-05T02:20:13.331Z,1008.41
2023-05-05T02:21:13.293Z,1008.40
2023-05-05T02:22:13.283Z,1008.41
2023-05-05T02:23:13.246Z,1008.43
2023-05-05T02:24:13.236Z,1008.42
2023-05-05T02:25:13.244Z,1008.46
2023-05-05T02:26:13.235Z,1008.45
2023-05-05T02:27:13.279Z,1008.46
2023-05-05T02:28:13.203Z,1008.43
2023-05-05T02:29:13.187Z,1008.44
2023-05-05T02:30:13.165Z,1008.44
2023-05-05T02:31:13.233Z,1008.46
2023-05-05T02:32:13.148Z,1008.44
2023-05-05T02:33:13.168Z,1008.48
2023-05-05T02:34:13.131Z,1008.48
2023-05-05T02:35:13.128Z,1008.48
2023-05-05T02:36:13.179Z,1008.51
2023-05-05T02:37:13.098Z,1008.50
2023-05-05T02:38:13.155Z,1008.50
2023-05-05T02:39:13.088Z,1008.54
2023-05-05T02:40:13.077Z,1008.53
2023-05-05T02:41:13.110Z,1008.58
2023-05-05T02:42:13.046Z,1008.57
2023-05-05T02:43:13.079Z,1008.56
2023-05-05T02:44:13.011Z,1008.57
2023-05-05T02:45:13.012Z,1008.55
2023-05-05T02:46:13.086Z,1008.56
2023-05-05T02:47:12.984Z,1008.57
2023-05-05T02:48:13.068Z,1008.61
2023-05-05T02:49:12.975Z,1008.59
2023-05-05T02:50:12.963Z,1008.60
2023-05-05T02:51:12.991Z,1008.57
2023-05-05T02:52:12.922Z,1008.62
2023-05-05T02:53:12.998Z,1008.63
2023-05-05T02:54:12.906Z,1008.61
2023-05-05T02:55:12.954Z,1008.63
2023-05-05T02:56:12.891Z,1008.62
2023-05-05T02:57:12.876Z,1008.60
2023-05-05T02:58:12.851Z,1008.62
2023-05-05T02:59:14.513Z,1008.68
2023-05-05T03:00:12.850Z,1008.67
2023-05-05T03:01:12.880Z,1008.70
2023-05-05T03:02:12.811Z,1008.67
2023-05-05T03:03:12.964Z,1008.69
2023-05-05T03:04:12.792Z,1008.69
2023-05-05T03:05:12.782Z,1008.67
2023-05-05T03:06:12.778Z,1008.69
2023-05-05T03:07:12.778Z,1008.72
2023-05-05T03:08:12.741Z,1008.72
2023-05-05T03:09:12.787Z,1008.78
2023-05-05T03:10:12.737Z,1008.71
2023-05-05T03:11:12.724Z,1008.72
2023-05-05T03:12:12.702Z,1008.75
2023-05-05T03:13:12.754Z,1008.79
2023-05-05T03:14:12.682Z,1008.78
2023-05-05T03:15:12.676Z,1008.77
2023-05-05T03:16:12.705Z,1008.78
2023-05-05T03:17:12.650Z,1008.73
2023-05-05T03:18:12.636Z,1008.73
2023-05-05T03:19:12.628Z,1008.73
2023-05-05T03:20:12.607Z,1008.76
2023-05-05T03:21:12.611Z,1008.78
2023-05-05T03:22:12.581Z,1008.82
2023-05-05T03:23:12.626Z,1008.80
2023-05-05T03:24:12.563Z,1008.78
2023-05-05T03:25:12.688Z,1008.80
2023-05-05T03:26:12.571Z,1008.80
2023-05-05T03:27:12.532Z,1008.77
2023-05-05T03:28:12.523Z,1008.83
2023-05-05T03:29:12.519Z,1008.82
2023-05-05T03:30:12.547Z,1008.85
2023-05-05T03:31:12.528Z,1008.83
2023-05-05T03:32:12.513Z,1008.86
2023-05-05T03:33:12.461Z,1008.84
2023-05-05T03:34:12.528Z,1008.79
2023-05-05T03:35:12.449Z,1008.78
2023-05-05T03:36:12.478Z,1008.79
2023-05-05T03:37:12.417Z,1008.81
2023-05-05T03:38:12.409Z,1008.81
2023-05-05T03:39:12.396Z,1008.84
2023-05-05T03:40:12.436Z,1008.85
2023-05-05T03:41:12.473Z,1008.88
2023-05-05T03:42:12.367Z,1008.86
2023-05-05T03:43:12.367Z,1008.87
2023-05-05T03:44:12.371Z,1008.86
2023-05-05T03:45:12.330Z,1008.87
2023-05-05T03:46:12.476Z,1008.89
2023-05-05T03:47:12.314Z,1008.88
2023-05-05T03:48:12.338Z,1008.90
2023-05-05T03:49:12.290Z,1008.93
2023-05-05T03:50:12.276Z,1008.89
2023-05-05T03:51:12.284Z,1008.94
2023-05-05T03:52:13.827Z,1008.88
2023-05-05T03:53:12.247Z,1008.90
2023-05-05T03:54:12.237Z,1008.84
2023-05-05T03:55:12.231Z,1008.85
2023-05-05T03:56:12.254Z,1008.86
2023-05-05T03:57:12.202Z,1008.82
2023-05-05T03:58:12.234Z,1008.84
2023-05-05T03:59:12.207Z,1008.83
2023-05-05T04:00:12.205Z,1008.87
2023-05-05T04:01:12.173Z,1008.85
2023-05-05T04:02:12.173Z,1008.84
2023-05-05T04:03:12.269Z,1008.88
2023-05-05T04:04:12.156Z,1008.87
2023-05-05T04:05:12.121Z,1008.88
2023-05-05T04:06:12.156Z,1008.88
2023-05-05T04:07:12.098Z,1008.90
2023-05-05T04:08:12.159Z,1008.93
2023-05-05T04:09:12.087Z,1008.93
2023-05-05T04:10:12.093Z,1008.94
2023-05-05T04:11:12.097Z,1008.99
2023-05-05T04:12:12.080Z,1009.01
2023-05-05T04:13:12.097Z,1009.03
2023-05-05T04:14:12.019Z,1009.07
2023-05-05T04:15:12.011Z,1009.05
2023-05-05T04:16:12.085Z,1009.09
2023-05-05T04:17:11.994Z,1009.09
2023-05-05T04:18:11.999Z,1009.09
2023-05-05T04:19:11.972Z,1009.14
2023-05-05T04:20:11.982Z,1009.09
2023-05-05T04:21:11.944Z,1009.14
2023-05-05T04:22:11.931Z,1009.11
2023-05-05T04:23:11.913Z,1009.13
2023-05-05T04:24:11.916Z,1009.10
2023-05-05T04:25:11.902Z,1009.14
2023-05-05T04:26:11.932Z,1009.15
2023-05-05T04:27:11.888Z,1009.14
2023-05-05T04:28:11.869Z,1009.14
2023-05-05T04:29:11.840Z,1009.16
2023-05-05T04:30:11.879Z,1009.16
2023-05-05T04:31:11.957Z,1009.10
2023-05-05T04:32:11.827Z,1009.16
2023-05-05T04:33:11.804Z,1009.12
2023-05-05T04:34:11.802Z,1009.18
2023-05-05T04:35:11.788Z,1009.19
2023-05-05T04:36:11.927Z,1009.16
2023-05-05T04:37:11.764Z,1009.19
2023-05-05T04:38:11.802Z,1009.17
2023-05-05T04:39:11.738Z,1009.17
2023-05-05T04:40:11.755Z,1009.17
2023-05-05T04:41:11.730Z,1009.19
2023-05-05T04:42:11.713Z,1009.17
2023-05-05T04:43:11.708Z,1009.18
2023-05-05T04:44:11.744Z,1009.17
2023-05-05T04:45:11.688Z,1009.24
2023-05-05T04:46:11.762Z,1009.22
2023-05-05T04:47:13.974Z,1009.22
2023-05-05T04:48:11.735Z,1009.21
2023-05-05T04:49:11.637Z,1009.24
2023-05-05T04:50:11.640Z,1009.23
2023-05-05T04:51:11.611Z,1009.26
2023-05-05T04:52:11.600Z,1009.24
2023-05-05T04:53:11.584Z,1009.26
2023-05-05T04:54:11.603Z,1009.26
2023-05-05T04:55:11.662Z,1009.20
2023-05-05T04:56:11.674Z,1009.21
2023-05-05T04:57:11.530Z,1009.23
2023-05-05T04:58:11.546Z,1009.27
2023-05-05T04:59:11.554Z,1009.27
2023-05-05T05:00:11.768Z,1009.28
2023-05-05T05:01:11.686Z,1009.25
2023-05-05T05:02:11.536Z,1009.25
2023-05-05T05:03:11.522Z,1009.27
2023-05-05T05:04:11.482Z,1009.29
2023-05-05T05:05:11.448Z,1009.28
2023-05-05T05:06:11.473Z,1009.26
2023-05-05T05:07:11.508Z,1009.24
2023-05-05T05:08:11.448Z,1009.26
2023-05-05T05:09:11.406Z,1009.31
2023-05-05T05:10:11.709Z,1009.26
2023-05-05T05:11:11.419Z,1009.28
2023-05-05T05:12:11.547Z,1009.31
2023-05-05T05:13:12.785Z,1009.34
2023-05-05T05:14:11.431Z,1009.38
2023-05-05T05:15:11.339Z,1009.32
2023-05-05T05:16:11.678Z,1009.38
2023-05-05T05:17:11.317Z,1009.39
2023-05-05T05:18:11.344Z,1009.31
2023-05-05T05:19:11.978Z,1009.36
2023-05-05T05:20:11.623Z,1009.37
2023-05-05T05:21:11.287Z,1009.39
2023-05-05T05:22:11.283Z,1009.37
2023-05-05T05:23:11.257Z,1009.38
2023-05-05T05:24:11.247Z,1009.46
2023-05-05T05:25:11.230Z,1009.46
2023-05-05T05:26:11.261Z,1009.45
2023-05-05T05:27:11.204Z,1009.44
2023-05-05T05:28:11.348Z,1009.43
2023-05-05T05:29:11.197Z,1009.43
2023-05-05T05:30:11.182Z,1009.41
2023-05-05T05:31:11.224Z,1009.42
2023-05-05T05:32:11.230Z,1009.42
2023-05-05T05:33:11.213Z,1009.42
2023-05-05T05:34:12.845Z,1009.41
2023-05-05T05:35:11.118Z,1009.44
2023-05-05T05:36:11.207Z,1009.45
2023-05-05T05:37:11.104Z,1009.43
2023-05-05T05:38:11.175Z,1009.43
2023-05-05T05:39:11.070Z,1009.44
2023-05-05T05:40:11.067Z,1009.47
2023-05-05T05:41:11.076Z,1009.48
2023-05-05T05:42:11.066Z,1009.47
2023-05-05T05:43:11.075Z,1009.48
2023-05-05T05:44:11.039Z,1009.47
2023-05-05T05:45:11.021Z,1009.43
2023-05-05T05:46:11.032Z,1009.41
2023-05-05T05:47:10.985Z,1009.48
2023-05-05T05:48:11.058Z,1009.46
2023-05-05T05:49:11.023Z,1009.47
2023-05-05T05:50:11.098Z,1009.51
2023-05-05T05:51:10.972Z,1009.45
2023-05-05T05:52:10.976Z,1009.45
2023-05-05T05:53:10.921Z,1009.47
2023-05-05T05:54:10.956Z,1009.46
2023-05-05T05:55:10.895Z,1009.48
2023-05-05T05:56:11.023Z,1009.45
2023-05-05T05:57:10.867Z,1009.42
2023-05-05T05:58:10.866Z,1009.40
2023-05-05T05:59:10.869Z,1009.38
2023-05-05T06:00:10.912Z,1009.43
2023-05-05T06:01:10.843Z,1009.43
2023-05-05T06:02:10.844Z,1009.44
2023-05-05T06:03:10.888Z,1009.45
2023-05-05T06:04:10.857Z,1009.42
2023-05-05T06:05:10.804Z,1009.45
2023-05-05T06:06:10.803Z,1009.45
2023-05-05T06:07:10.755Z,1009.42
2023-05-05T06:08:10.764Z,1009.42
2023-05-05T06:09:10.841Z,1009.44
2023-05-05T06:10:25.944Z,1009.46
2023-05-05T06:11:11.734Z,1009.49
2023-05-05T06:12:10.707Z,1009.50
2023-05-05T06:13:10.712Z,1009.51
2023-05-05T06:14:10.727Z,1009.50
2023-05-05T06:15:10.675Z,1009.51
2023-05-05T06:16:10.870Z,1009.52
2023-05-05T06:17:10.684Z,1009.51
2023-05-05T06:18:10.921Z,1009.50
2023-05-05T06:19:10.650Z,1009.52
2023-05-05T06:20:10.715Z,1009.55
2023-05-05T06:21:10.612Z,1009.55
2023-05-05T06:22:10.633Z,1009.58
2023-05-05T06:23:10.586Z,1009.57
2023-05-05T06:24:10.653Z,1009.59
2023-05-05T06:25:10.562Z,1009.63
2023-05-05T06:26:10.914Z,1009.63
2023-05-05T06:27:10.548Z,1009.63
2023-05-05T06:28:10.540Z,1009.67
2023-05-05T06:29:12.199Z,1009.62
2023-05-05T06:30:10.818Z,1009.61
2023-05-05T06:31:10.571Z,1009.65
2023-05-05T06:32:10.566Z,1009.67
2023-05-05T06:33:10.486Z,1009.62
2023-05-05T06:34:10.542Z,1009.64
2023-05-05T06:35:10.468Z,1009.63
2023-05-05T06:36:10.580Z,1009.65
2023-05-05T06:37:10.472Z,1009.65
2023-05-05T06:38:10.419Z,1009.69
2023-05-05T06:39:10.527Z,1009.70
2023-05-05T06:40:10.747Z,1009.68
2023-05-05T06:41:10.406Z,1009.70
2023-05-05T06:42:10.380Z,1009.70
2023-05-05T06:43:10.372Z,1009.75
2023-05-05T06:44:10.383Z,1009.70
2023-05-05T06:45:10.370Z,1009.63
2023-05-05T06:46:10.350Z,1009.69
2023-05-05T06:47:10.364Z,1009.69
2023-05-05T06:48:10.346Z,1009.62
2023-05-05T06:49:10.314Z,1009.65
2023-05-05T06:50:10.590Z,1009.68
2023-05-05T06:51:10.294Z,1009.65
2023-05-05T06:52:10.682Z,1009.67
2023-05-05T06:53:10.257Z,1009.61
2023-05-05T06:54:10.270Z,1009.65
2023-05-05T06:55:10.252Z,1009.62
2023-05-05T06:56:10.264Z,1009.62
2023-05-05T06:57:10.211Z,1009.62
2023-05-05T06:58:10.210Z,1009.62
2023-05-05T06:59:10.200Z,1009.60
2023-05-05T07:00:10.300Z,1009.64
2023-05-05T07:01:10.246Z,1009.64
2023-05-05T07:02:10.176Z,1009.65
2023-05-05T07:03:10.196Z,1009.69
2023-05-05T07:04:10.240Z,1009.68
2023-05-05T07:05:10.140Z,1009.66
2023-05-05T07:06:10.154Z,1009.66
2023-05-05T07:07:10.115Z,1009.67
2023-05-05T07:08:10.417Z,1009.70
2023-05-05T07:09:10.079Z,1009.70
2023-05-05T07:10:10.335Z,1009.69
2023-05-05T07:11:10.084Z,1009.73
2023-05-05T07:12:10.184Z,1009.74
2023-05-05T07:13:10.132Z,1009.84
2023-05-05T07:14:10.037Z,1009.79
2023-05-05T07:15:23.529Z,1009.84
2023-05-05T07:16:11.154Z,1009.80
2023-05-05T07:17:09.991Z,1009.78
2023-05-05T07:18:10.256Z,1009.79
2023-05-05T07:19:10.002Z,1009.78
2023-05-05T07:20:10.227Z,1009.83
2023-05-05T07:21:09.958Z,1009.84
2023-05-05T07:22:10.048Z,1009.83
2023-05-05T07:23:09.944Z,1009.86
2023-05-05T07:24:09.971Z,1009.81
2023-05-05T07:25:09.905Z,1009.86
2023-05-05T07:26:09.925Z,1009.85
2023-05-05T07:27:09.892Z,1009.88
2023-05-05T07:28:09.896Z,1009.83
2023-05-05T07:29:09.866Z,1009.87
2023-05-05T07:30:14.105Z,1009.88
2023-05-05T07:31:10.851Z,1009.87
2023-05-05T07:32:09.943Z,1009.89
2023-05-05T07:33:10.016Z,1009.92
2023-05-05T07:34:09.813Z,1009.82
2023-05-05T07:35:09.862Z,1009.87
2023-05-05T07:36:09.857Z,1009.83
2023-05-05T07:37:09.780Z,1009.82
2023-05-05T07:38:10.930Z,1009.79
2023-05-05T07:39:09.750Z,1009.81
2023-05-05T07:40:10.154Z,1009.79
2023-05-05T07:41:09.754Z,1009.80
2023-05-05T07:42:09.785Z,1009.83
2023-05-05T07:43:09.744Z,1009.82
2023-05-05T07:44:09.716Z,1009.87
2023-05-05T07:45:09.716Z,1009.91
2023-05-05T07:46:09.756Z,1009.94
2023-05-05T07:47:09.913Z,1009.91
2023-05-05T07:48:09.693Z,1009.82
2023-05-05T07:49:09.655Z,1009.85
2023-05-05T07:50:09.966Z,1009.80
2023-05-05T07:51:09.682Z,1009.85
2023-05-05T07:52:09.650Z,1009.81
2023-05-05T07:53:14.633Z,1009.86
2023-05-05T07:54:10.593Z,1009.88
2023-05-05T07:55:09.625Z,1009.84
2023-05-05T07:56:09.678Z,1009.85
2023-05-05T07:57:09.568Z,1009.79
2023-05-05T07:58:09.567Z,1009.81
2023-05-05T07:59:09.540Z,1009.81
2023-05-05T08:00:09.977Z,1009.82
2023-05-05T08:01:09.517Z,1009.84
2023-05-05T08:02:09.541Z,1009.80
2023-05-05T08:03:11.673Z,1009.80
2023-05-05T08:04:09.647Z,1009.78
2023-05-05T08:05:10.056Z,1009.80
2023-05-05T08:06:09.554Z,1009.78
2023-05-05T08:07:09.474Z,1009.77
2023-05-05T08:08:09.472Z,1009.81
2023-05-05T08:09:09.467Z,1009.85
2023-05-05T08:10:09.487Z,1009.84
2023-05-05T08:11:09.432Z,1009.83
2023-05-05T08:12:09.492Z,1009.87
2023-05-05T08:13:09.444Z,1009.86
2023-05-05T08:14:09.393Z,1009.85
2023-05-05T08:15:09.658Z,1009.85
2023-05-05T08:16:09.519Z,1009.80
2023-05-05T08:17:09.443Z,1009.79
2023-05-05T08:18:09.463Z,1009.78
2023-05-05T08:19:21.115Z,1009.88
2023-05-05T08:20:10.681Z,1009.83
2023-05-05T08:21:09.335Z,1009.85
2023-05-05T08:22:09.401Z,1009.83
2023-05-05T08:23:09.343Z,1009.82
2023-05-05T08:24:09.345Z,1009.73
2023-05-05T08:25:09.450Z,1009.79
2023-05-05T08:26:09.404Z,1009.81
2023-05-05T08:27:09.276Z,1009.81
2023-05-05T08:28:09.492Z,1009.84
2023-05-05T08:29:09.229Z,1009.82
2023-05-05T08:30:09.241Z,1009.82
2023-05-05T08:31:09.225Z,1009.77
2023-05-05T08:32:09.202Z,1009.85
2023-05-05T08:33:09.199Z,1009.83
2023-05-05T08:34:09.234Z,1009.80
2023-05-05T08:35:09.375Z,1009.79
2023-05-05T08:36:09.318Z,1009.77
2023-05-05T08:37:09.144Z,1009.76
2023-05-05T08:38:09.200Z,1009.69
2023-05-05T08:39:09.127Z,1009.72
2023-05-05T08:40:09.197Z,1009.70
2023-05-05T08:41:09.135Z,1009.70
2023-05-05T08:42:09.109Z,1009.73
2023-05-05T08:43:09.097Z,1009.74
2023-05-05T08:44:09.092Z,1009.73
2023-05-05T08:45:09.659Z,1009.72
2023-05-05T08:46:09.066Z,1009.70
2023-05-05T08:47:09.063Z,1009.70
2023-05-05T08:48:09.112Z,1009.68
2023-05-05T08:49:09.020Z,1009.68
2023-05-05T08:50:09.048Z,1009.70
2023-05-05T08:51:09.019Z,1009.70
2023-05-05T08:52:09.088Z,1009.63
2023-05-05T08:53:08.976Z,1009.69
2023-05-05T08:54:09.013Z,1009.65
2023-05-05T08:55:09.141Z,1009.71
2023-05-05T08:56:08.977Z,1009.73
2023-05-05T08:57:08.929Z,1009.71
2023-05-05T08:58:08.933Z,1009.73
2023-05-05T08:59:08.905Z,1009.72
2023-05-05T09:00:09.043Z,1009.73
2023-05-05T09:01:08.926Z,1009.72
2023-05-05T09:02:08.938Z,1009.74
2023-05-05T09:03:09.001Z,1009.74
2023-05-05T09:04:08.938Z,1009.78
2023-05-05T09:05:09.082Z,1009.75
2023-05-05T09:06:08.838Z,1009.76
2023-05-05T09:07:08.829Z,1009.81
2023-05-05T09:08:08.891Z,1009.78
2023-05-05T09:09:08.804Z,1009.74
2023-05-05T09:10:08.923Z,1009.82
2023-05-05T09:11:08.868Z,1009.81
2023-05-05T09:12:08.873Z,1009.84
2023-05-05T09:13:08.899Z,1009.86
2023-05-05T09:14:08.785Z,1009.83
2023-05-05T09:15:09.019Z,1009.94
2023-05-05T09:16:09.070Z,1009.89
2023-05-05T09:17:08.807Z,1009.87
2023-05-05T09:18:09.114Z,1009.85
2023-05-05T09:19:08.703Z,1009.86
2023-05-05T09:20:08.735Z,1009.83
2023-05-05T09:21:08.681Z,1009.84
2023-05-05T09:22:08.696Z,1009.87
2023-05-05T09:23:08.670Z,1009.84
2023-05-05T09:24:09.430Z,1009.85
2023-05-05T09:25:09.002Z,1009.80
2023-05-05T09:26:08.718Z,1009.74
2023-05-05T09:27:08.621Z,1009.79
2023-05-05T09:28:08.631Z,1009.84
2023-05-05T09:29:08.628Z,1009.78
2023-05-05T09:30:08.631Z,1009.80
2023-05-05T09:31:08.682Z,1009.83
2023-05-05T09:32:09.115Z,1009.78
2023-05-05T09:33:08.616Z,1009.70
2023-05-05T09:34:08.688Z,1009.67
2023-05-05T09:35:08.762Z,1009.56
2023-05-05T09:36:08.564Z,1009.52
2023-05-05T09:37:08.532Z,1009.47
2023-05-05T09:38:08.571Z,1009.48
2023-05-05T09:39:08.519Z,1009.52
2023-05-05T09:40:08.580Z,1009.50
2023-05-05T09:41:08.544Z,1009.50
2023-05-05T09:42:08.622Z,1009.60
2023-05-05T09:43:08.468Z,1009.59
2023-05-05T09:44:08.528Z,1009.63
2023-05-05T09:45:08.601Z,1009.61
2023-05-05T09:46:08.689Z,1009.67
2023-05-05T09:47:22.148Z,1009.65
2023-05-05T09:48:09.516Z,1009.67
2023-05-05T09:49:08.463Z,1009.62
2023-05-05T09:50:08.631Z,1009.63
2023-05-05T09:51:08.527Z,1009.60
2023-05-05T09:52:08.584Z,1009.58
2023-05-05T09:53:08.380Z,1009.55
2023-05-05T09:54:08.362Z,1009.61
2023-05-05T09:55:08.398Z,1009.60
2023-05-05T09:56:08.371Z,1009.52
2023-05-05T09:57:08.332Z,1009.56
2023-05-05T09:58:08.382Z,1009.49
2023-05-05T09:59:08.310Z,1009.52
2023-05-05T10:00:08.594Z,1009.43
2023-05-05T10:01:08.402Z,1009.39
2023-05-05T10:02:08.345Z,1009.43
2023-05-05T10:03:08.293Z,1009.34
2023-05-05T10:04:08.325Z,1009.35
2023-05-05T10:05:08.327Z,1009.33
2023-05-05T10:06:08.367Z,1009.33
2023-05-05T10:07:08.233Z,1009.30
2023-05-05T10:08:08.248Z,1009.24
2023-05-05T10:09:08.225Z,1009.19
2023-05-05T10:10:08.439Z,1009.21
2023-05-05T10:11:08.235Z,1009.18
2023-05-05T10:12:08.212Z,1008.86
2023-05-05T10:13:08.323Z,1009.14
2023-05-05T10:14:08.179Z,1009.25
2023-05-05T10:15:08.174Z,1009.25
2023-05-05T10:16:08.242Z,1008.94
2023-05-05T10:17:08.143Z,1009.00
2023-05-05T10:18:08.674Z,1009.04
2023-05-05T10:19:08.126Z,1009.10
2023-05-05T10:20:08.366Z,1009.07
2023-05-05T10:21:08.109Z,1009.09
2023-05-05T10:22:08.205Z,1009.05
2023-05-05T10:23:08.088Z,1008.89
2023-05-05T10:24:08.109Z,1008.90
2023-05-05T10:25:08.067Z,1008.91
2023-05-05T10:26:08.126Z,1008.89
2023-05-05T10:27:08.060Z,1008.86
2023-05-05T10:28:08.202Z,1008.87
2023-05-05T10:29:08.043Z,1008.86
2023-05-05T10:30:08.476Z,1008.82
2023-05-05T10:31:20.068Z,1008.81
2023-05-05T10:32:30.229Z,1008.81
2023-05-05T10:34:08.073Z,1008.87
2023-05-05T10:35:07.980Z,1008.80
2023-05-05T10:36:07.952Z,1009.09
2023-05-05T10:37:07.969Z,1008.97
2023-05-05T10:38:07.985Z,1008.98
2023-05-05T10:39:08.118Z,1009.04
2023-05-05T10:40:08.232Z,1009.09
2023-05-05T10:41:07.904Z,1009.12
2023-05-05T10:42:07.908Z,1009.06
2023-05-05T10:43:07.916Z,1009.02
2023-05-05T10:44:07.924Z,1008.97
2023-05-05T10:45:07.933Z,1009.01
2023-05-05T10:46:07.852Z,1008.90
2023-05-05T10:47:07.843Z,1008.84
2023-05-05T10:48:07.957Z,1008.85
2023-05-05T10:49:07.862Z,1008.82
2023-05-05T10:50:08.145Z,1008.85
2023-05-05T10:51:07.861Z,1008.94
2023-05-05T10:52:07.806Z,1008.76
2023-05-05T10:53:07.781Z,1008.74
2023-05-05T10:54:07.999Z,1008.83
2023-05-05T10:55:07.760Z,1008.83
2023-05-05T10:56:08.060Z,1008.73
2023-05-05T10:57:07.754Z,1008.72
2023-05-05T10:58:07.798Z,1008.72
2023-05-05T10:59:07.727Z,1008.69
2023-05-05T11:00:08.002Z,1008.68
2023-05-05T11:01:07.722Z,1008.67
2023-05-05T11:02:07.711Z,1008.50
2023-05-05T11:03:07.842Z,1008.39
2023-05-05T11:04:07.927Z,1008.39
2023-05-05T11:05:07.673Z,1008.37
2023-05-05T11:06:07.709Z,1008.40
2023-05-05T11:07:07.661Z,1008.42
2023-05-05T11:08:07.760Z,1008.39
2023-05-05T11:09:07.630Z,1008.33
2023-05-05T11:10:08.148Z,1008.38
2023-05-05T11:11:07.592Z,1008.36
2023-05-05T11:12:07.724Z,1008.37
2023-05-05T11:13:07.597Z,1008.42
2023-05-05T11:14:07.564Z,1008.41
2023-05-05T11:15:07.574Z,1008.44
2023-05-05T11:16:07.714Z,1008.51
2023-05-05T11:17:07.603Z,1008.46
2023-05-05T11:18:08.415Z,1008.53
2023-05-05T11:19:07.546Z,1008.64
2023-05-05T11:20:07.934Z,1008.65
2023-05-05T11:21:07.514Z,1008.67
2023-05-05T11:22:07.678Z,1008.75
2023-05-05T11:23:07.520Z,1008.95
2023-05-05T11:24:07.715Z,1009.24
2023-05-05T11:25:07.460Z,1009.22
2023-05-05T11:26:07.583Z,1009.34
2023-05-05T11:27:07.517Z,1009.37
2023-05-05T11:28:07.422Z,1009.44
2023-05-05T11:29:07.404Z,1009.45
2023-05-05T11:30:07.665Z,1009.48
2023-05-05T11:31:07.424Z,1009.41
2023-05-05T11:32:07.448Z,1009.48
2023-05-05T11:33:07.522Z,1009.41
2023-05-05T11:34:07.354Z,1009.44
2023-05-05T11:35:07.350Z,1009.38
2023-05-05T11:36:07.612Z,1009.36
2023-05-05T11:37:07.332Z,1009.34
2023-05-05T11:38:07.365Z,1009.33
2023-05-05T11:39:07.294Z,1009.32
2023-05-05T11:40:07.683Z,1009.23
2023-05-05T11:41:07.293Z,1009.25
2023-05-05T11:42:10.845Z,1009.25
2023-05-05T11:43:07.255Z,1009.21
2023-05-05T11:44:07.246Z,1009.31
2023-05-05T11:45:07.234Z,1009.24
2023-05-05T11:46:07.242Z,1009.23
2023-05-05T11:47:07.285Z,1009.24
2023-05-05T11:48:07.350Z,1009.17
2023-05-05T11:49:07.184Z,1009.20
2023-05-05T11:50:07.568Z,1009.24
2023-05-05T11:51:07.194Z,1009.21
2023-05-05T11:52:07.164Z,1009.15
2023-05-05T11:53:07.131Z,1009.07
2023-05-05T11:54:07.172Z,1009.08
2023-05-05T11:55:07.149Z,1009.08
2023-05-05T11:56:07.222Z,1009.04
2023-05-05T11:57:07.097Z,1009.05
2023-05-05T11:58:07.143Z,1009.02
2023-05-05T11:59:07.105Z,1009.03
2023-05-05T12:00:07.306Z,1009.00
2023-05-05T12:01:07.110Z,1009.00
2023-05-05T12:02:07.060Z,1009.02
2023-05-05T12:03:07.123Z,1008.99
2023-05-05T12:04:07.209Z,1009.02
2023-05-05T12:05:07.048Z,1009.06
2023-05-05T12:06:07.088Z,1009.02